createdAt,value
2022-11-05T00:02:01.847Z,99757.28
2022-11-05T00:04:52.400Z,99756.53
2022-11-05T00:07:38.757Z,99759.84
2022-11-05T00:10:07.941Z,99755.44
2022-11-05T00:12:55.401Z,99754.44
2022-11-05T00:15:40.944Z,99757.28
2022-11-05T00:18:08.764Z,99757.16
2022-11-05T00:20:36.540Z,99768.16
2022-11-05T00:23:22.261Z,99767.66
2022-11-05T00:25:57.101Z,99776.22
2022-11-05T00:28:29.048Z,99776.69
2022-11-05T00:31:01.350Z,99776.19
2022-11-05T00:33:29.102Z,99772.88
2022-11-05T00:35:56.679Z,99774.88
2022-11-05T00:38:24.785Z,99784.84
2022-11-05T00:40:52.461Z,99787.41
2022-11-05T00:43:34.141Z,99789.16
2022-11-05T00:46:03.283Z,99784.75
2022-11-05T00:48:48.443Z,99786.59
2022-11-05T00:51:16.124Z,99785.22
2022-11-05T00:53:43.847Z,99793.66
2022-11-05T00:56:11.654Z,99795.44
2022-11-05T00:58:39.428Z,99792.53
2022-11-05T01:01:08.776Z,99800.66
2022-11-05T01:03:37.143Z,99806.31
2022-11-05T01:06:08.081Z,99809.19
2022-11-05T01:08:35.809Z,99810.97
2022-11-05T01:11:08.964Z,99814.31
2022-11-05T01:13:36.702Z,99813.13
2022-11-05T01:16:06.635Z,99814.81
2022-11-05T01:18:37.791Z,99818.31
2022-11-05T01:21:12.151Z,99820.00
2022-11-05T01:23:40.186Z,99816.13
2022-11-05T01:26:08.175Z,99824.78
2022-11-05T01:28:35.927Z,99823.19
2022-11-05T01:31:03.649Z,99837.59
2022-11-05T01:33:31.673Z,99842.50
2022-11-05T01:36:00.789Z,99837.44
2022-11-05T01:38:28.622Z,99840.25
2022-11-05T01:40:56.420Z,99843.41
2022-11-05T01:43:24.696Z,99846.53
2022-11-05T01:45:53.859Z,99842.91
2022-11-05T01:48:22.817Z,99843.31
2022-11-05T01:50:54.754Z,99845.09
2022-11-05T01:53:27.874Z,99836.69
2022-11-05T01:55:58.922Z,99853.97
2022-11-05T01:58:30.824Z,99847.38
2022-11-05T02:00:58.896Z,99852.16
2022-11-05T02:03:27.643Z,99855.88
2022-11-05T02:05:56.589Z,99862.59
2022-11-05T02:08:30.383Z,99862.91
2022-11-05T02:10:59.219Z,99875.94
2022-11-05T02:13:26.951Z,99879.88
2022-11-05T02:16:00.185Z,99888.38
2022-11-05T02:18:36.011Z,99888.78
2022-11-05T02:21:13.318Z,99896.56
2022-11-05T02:23:54.826Z,99895.81
2022-11-05T02:26:41.317Z,99901.63
2022-11-05T02:29:37.477Z,99904.59
2022-11-05T02:32:10.857Z,99909.41
2022-11-05T02:34:44.665Z,99909.41
2022-11-05T02:37:15.541Z,99906.38
2022-11-05T02:39:48.262Z,99905.13
2022-11-05T02:42:21.037Z,99912.72
2022-11-05T02:44:52.986Z,99904.00
2022-11-05T02:47:25.302Z,99913.78
2022-11-05T02:49:58.293Z,99911.69
2022-11-05T02:52:28.449Z,99911.69
2022-11-05T02:55:00.809Z,99915.94
2022-11-05T02:57:30.213Z,99920.22
2022-11-05T03:00:01.989Z,99922.97
2022-11-05T03:02:31.435Z,99917.66
2022-11-05T03:04:59.734Z,99927.75
2022-11-05T03:07:32.909Z,99925.97
2022-11-05T03:10:11.646Z,99925.94
2022-11-05T03:12:44.454Z,99913.00
2022-11-05T03:15:17.785Z,99904.16
2022-11-05T03:17:54.619Z,99906.00
2022-11-05T03:20:25.162Z,99905.09
2022-11-05T03:22:55.592Z,99904.94
2022-11-05T03:25:25.649Z,99908.06
2022-11-05T03:27:55.484Z,99909.44
2022-11-05T03:30:24.921Z,99908.75
2022-11-05T03:32:56.981Z,99931.03
2022-11-05T03:35:28.218Z,99924.41
2022-11-05T03:38:00.441Z,99920.78
2022-11-05T03:40:30.752Z,99921.75
2022-11-05T03:42:59.040Z,99930.34
2022-11-05T03:45:33.761Z,99930.97
2022-11-05T03:48:05.151Z,99931.53
2022-11-05T03:50:41.073Z,99924.63
2022-11-05T03:53:13.267Z,99933.88
2022-11-05T03:55:45.670Z,99937.38
2022-11-05T03:58:13.668Z,99938.56
2022-11-05T04:00:41.628Z,99942.19
2022-11-05T04:03:10.909Z,99946.03
2022-11-05T04:05:41.215Z,99947.06
2022-11-05T04:08:27.092Z,99950.91
2022-11-05T04:11:12.614Z,99962.34
2022-11-05T04:13:40.230Z,99971.69
2022-11-05T04:16:25.570Z,99984.06
2022-11-05T04:18:54.599Z,99983.94
2022-11-05T04:21:39.940Z,99990.38
2022-11-05T04:24:10.438Z,99993.72
2022-11-05T04:26:39.263Z,99996.81
2022-11-05T04:29:25.113Z,100002.44
2022-11-05T04:31:53.395Z,100001.81
2022-11-05T04:34:24.361Z,100011.19
2022-11-05T04:36:53.174Z,100011.72
2022-11-05T04:39:21.833Z,100011.72
2022-11-05T04:41:49.556Z,100018.25
2022-11-05T04:44:17.364Z,100024.06
2022-11-05T04:46:45.101Z,100014.09
2022-11-05T04:49:13.046Z,100018.38
2022-11-05T04:51:42.453Z,100022.72
2022-11-05T04:54:10.383Z,100019.97
2022-11-05T04:56:38.302Z,100012.34
2022-11-05T04:59:06.243Z,100018.53
2022-11-05T05:01:34.418Z,100018.00
2022-11-05T05:04:02.223Z,100011.66
2022-11-05T05:06:30.042Z,100005.63
2022-11-05T05:08:59.193Z,99997.66
2022-11-05T05:11:27.105Z,100002.47
2022-11-05T05:13:54.831Z,100005.69
2022-11-05T05:16:23.461Z,99992.66
2022-11-05T05:18:52.923Z,100004.59
2022-11-05T05:21:39.011Z,100000.88
2022-11-05T05:24:09.782Z,100001.34
2022-11-05T05:26:37.955Z,100002.31
2022-11-05T05:29:06.307Z,100007.38
2022-11-05T05:31:34.384Z,100008.81
2022-11-05T05:34:02.404Z,100004.47
2022-11-05T05:36:30.347Z,100008.66
2022-11-05T05:38:58.256Z,100014.09
2022-11-05T05:41:27.413Z,100011.69
2022-11-05T05:43:55.159Z,100026.97
2022-11-05T05:46:23.000Z,100028.44
2022-11-05T05:48:52.881Z,100034.38
2022-11-05T05:51:20.552Z,100040.06
2022-11-05T05:53:48.691Z,100040.97
2022-11-05T05:56:19.299Z,100045.72
2022-11-05T05:58:48.670Z,100045.31
2022-11-05T06:01:19.691Z,100057.41
2022-11-05T06:03:48.331Z,100062.94
2022-11-05T06:06:19.513Z,100069.94
2022-11-05T06:08:47.394Z,100066.19
2022-11-05T06:11:15.134Z,100065.09
2022-11-05T06:13:43.571Z,100069.00
2022-11-05T06:16:12.624Z,100071.59
2022-11-05T06:18:40.583Z,100066.19
2022-11-05T06:21:09.144Z,100081.81
2022-11-05T06:23:37.647Z,100087.53
2022-11-05T06:26:06.719Z,100089.97
2022-11-05T06:28:34.791Z,100095.09
2022-11-05T06:31:02.798Z,100096.66
2022-11-05T06:33:32.207Z,100106.56
2022-11-05T06:36:00.534Z,100107.56
2022-11-05T06:38:29.241Z,100105.78
2022-11-05T06:40:58.882Z,100112.63
2022-11-05T06:43:26.489Z,100112.03
2022-11-05T06:45:55.395Z,100120.78
2022-11-05T06:48:25.187Z,100121.88
2022-11-05T06:50:55.384Z,100122.13
2022-11-05T06:53:23.282Z,100136.91
2022-11-05T06:55:51.319Z,100139.69
2022-11-05T06:58:18.912Z,100149.19
2022-11-05T07:00:46.917Z,100149.69
2022-11-05T07:03:15.233Z,100153.78
2022-11-05T07:05:44.776Z,100159.78
2022-11-05T07:08:13.764Z,100153.19
2022-11-05T07:10:41.519Z,100170.31
2022-11-05T07:13:09.479Z,100171.34
2022-11-05T07:15:37.539Z,100186.94
2022-11-05T07:18:07.576Z,100186.19
2022-11-05T07:20:36.157Z,100183.13
2022-11-05T07:23:04.584Z,100194.19
2022-11-05T07:25:34.825Z,100209.81
2022-11-05T07:28:03.118Z,100203.03
2022-11-05T07:30:31.223Z,100204.59
2022-11-05T07:32:59.117Z,100218.38
2022-11-05T07:35:27.743Z,100221.09
2022-11-05T07:37:56.060Z,100227.84
2022-11-05T07:40:24.786Z,100244.97
2022-11-05T07:42:54.632Z,100244.81
2022-11-05T07:45:22.395Z,100247.16
2022-11-05T07:47:51.064Z,100254.00
2022-11-05T07:50:19.564Z,100258.41
2022-11-05T07:52:47.947Z,100259.06
2022-11-05T07:55:16.232Z,100267.41
2022-11-05T07:57:45.024Z,100277.06
2022-11-05T08:00:15.836Z,100278.53
2022-11-05T08:02:44.388Z,100283.94
2022-11-05T08:05:12.337Z,100291.34
2022-11-05T08:07:40.228Z,100292.50
2022-11-05T08:10:09.590Z,100296.81
2022-11-05T08:12:37.339Z,100292.66
2022-11-05T08:15:05.401Z,100290.03
2022-11-05T08:17:34.542Z,100297.88
2022-11-05T08:20:02.125Z,100297.53
2022-11-05T08:22:30.391Z,100302.00
2022-11-05T08:25:00.397Z,100305.75
2022-11-05T08:27:31.972Z,100313.88
2022-11-05T08:29:59.610Z,100320.22
2022-11-05T08:32:27.417Z,100319.41
2022-11-05T08:34:56.584Z,100324.59
2022-11-05T08:37:24.468Z,100326.28
2022-11-05T08:39:52.172Z,100324.31
2022-11-05T08:42:20.242Z,100321.72
2022-11-05T08:44:48.160Z,100329.31
2022-11-05T08:47:15.940Z,100335.38
2022-11-05T08:49:43.540Z,100331.94
2022-11-05T08:52:12.721Z,100327.03
2022-11-05T08:54:40.402Z,100328.25
2022-11-05T08:57:08.074Z,100336.22
2022-11-05T08:59:35.771Z,100330.09
2022-11-05T09:02:03.994Z,100337.81
2022-11-05T09:04:31.799Z,100345.19
2022-11-05T09:06:59.552Z,100340.88
2022-11-05T09:09:28.539Z,100348.84
2022-11-05T09:12:13.127Z,100351.22
2022-11-05T09:14:41.138Z,100348.94
2022-11-05T09:17:14.448Z,100349.94
2022-11-05T09:19:42.174Z,100355.88
2022-11-05T09:22:12.741Z,100353.91
2022-11-05T09:24:42.295Z,100356.28
2022-11-05T09:27:11.923Z,100355.75
2022-11-05T09:29:39.549Z,100349.13
2022-11-05T09:32:07.727Z,100339.63
2022-11-05T09:34:35.798Z,100351.03
2022-11-05T09:37:04.134Z,100358.28
2022-11-05T09:39:31.765Z,100360.47
2022-11-05T09:42:03.655Z,100359.88
2022-11-05T09:44:34.738Z,100361.97
2022-11-05T09:47:04.269Z,100372.59
2022-11-05T09:49:35.184Z,100368.47
2022-11-05T09:52:04.498Z,100366.31
2022-11-05T09:54:33.315Z,100375.41
2022-11-05T09:57:03.392Z,100380.66
2022-11-05T09:59:36.138Z,100388.41
2022-11-05T10:02:05.233Z,100393.94
2022-11-05T10:04:34.012Z,100396.25
2022-11-05T10:07:02.835Z,100398.91
2022-11-05T10:09:32.275Z,100397.03
2022-11-05T10:12:04.257Z,100406.16
2022-11-05T10:14:34.954Z,100405.53
2022-11-05T10:17:11.565Z,100406.91
2022-11-05T10:19:44.277Z,100407.03
2022-11-05T10:22:13.715Z,100405.84
2022-11-05T10:24:43.222Z,100412.19
2022-11-05T10:27:16.345Z,100407.19
2022-11-05T10:29:45.723Z,100406.34
2022-11-05T10:32:16.836Z,100405.50
2022-11-05T10:34:45.241Z,100410.88
2022-11-05T10:37:13.116Z,100414.97
2022-11-05T10:39:43.232Z,100424.75
2022-11-05T10:42:20.724Z,100426.50
2022-11-05T10:44:54.411Z,100425.66
2022-11-05T10:47:33.668Z,100436.44
2022-11-05T10:50:02.354Z,100440.53
2022-11-05T10:52:33.962Z,100445.03
2022-11-05T10:55:02.543Z,100448.66
2022-11-05T10:57:32.771Z,100442.81
2022-11-05T11:00:19.045Z,100448.78
2022-11-05T11:02:49.237Z,100444.94
2022-11-05T11:05:21.487Z,100453.22
2022-11-05T11:07:57.743Z,100452.41
2022-11-05T11:10:28.640Z,100439.88
2022-11-05T11:12:58.623Z,100429.47
2022-11-05T11:15:28.824Z,100422.03
2022-11-05T11:17:58.259Z,100435.56
2022-11-05T11:20:27.991Z,100428.78
2022-11-05T11:23:10.957Z,100425.91
2022-11-05T11:25:41.437Z,100419.28
2022-11-05T11:28:15.338Z,100418.38
2022-11-05T11:30:48.107Z,100411.13
2022-11-05T11:33:22.331Z,100412.13
2022-11-05T11:35:50.081Z,100419.97
2022-11-05T11:38:19.027Z,100422.69
2022-11-05T11:40:47.279Z,100419.22
2022-11-05T11:43:17.511Z,100412.34
2022-11-05T11:45:46.992Z,100409.25
2022-11-05T11:48:19.213Z,100409.72
2022-11-05T11:50:47.950Z,100393.19
2022-11-05T11:53:25.944Z,100403.38
2022-11-05T11:56:01.355Z,100404.03
2022-11-05T11:58:43.760Z,100409.34
2022-11-05T12:01:31.433Z,100410.91
2022-11-05T12:04:07.541Z,100413.56
2022-11-05T12:06:38.540Z,100423.81
2022-11-05T12:09:12.796Z,100417.63
2022-11-05T12:11:43.167Z,100412.00
2022-11-05T12:14:18.701Z,100409.72
2022-11-05T12:17:01.867Z,100401.47
2022-11-05T12:19:37.756Z,100398.47
2022-11-05T12:22:11.850Z,100390.13
2022-11-05T12:25:01.048Z,100391.38
2022-11-05T12:27:47.914Z,100384.28
2022-11-05T12:30:16.818Z,100385.59
2022-11-05T12:33:02.495Z,100378.72
2022-11-05T12:35:45.714Z,100378.00
2022-11-05T12:38:21.914Z,100380.03
2022-11-05T12:40:58.970Z,100377.06
2022-11-05T12:43:31.251Z,100379.63
2022-11-05T12:46:03.516Z,100381.88
2022-11-05T12:48:55.322Z,100379.56
2022-11-05T12:51:31.187Z,100387.09
2022-11-05T12:54:05.595Z,100390.00
2022-11-05T12:56:37.862Z,100385.81
2022-11-05T12:59:12.012Z,100396.28
2022-11-05T13:01:42.978Z,100394.16
2022-11-05T13:04:15.744Z,100400.47
2022-11-05T13:06:48.243Z,100397.41
2022-11-05T13:09:19.321Z,100393.91
2022-11-05T13:11:51.699Z,100391.53
2022-11-05T13:14:22.668Z,100399.50
2022-11-05T13:16:51.686Z,100395.09
2022-11-05T13:19:22.354Z,100395.22
2022-11-05T13:21:54.133Z,100396.03
2022-11-05T13:24:23.704Z,100394.91
2022-11-05T13:26:54.186Z,100395.94
2022-11-05T13:29:24.340Z,100398.22
2022-11-05T13:31:54.380Z,100396.81
2022-11-05T13:34:22.280Z,100391.50
2022-11-05T13:37:11.978Z,100390.03
2022-11-05T13:39:46.289Z,100392.25
2022-11-05T13:42:45.713Z,100389.56
2022-11-05T13:45:25.921Z,100388.94
2022-11-05T13:48:02.955Z,100383.50
2022-11-05T13:50:46.050Z,100382.38
2022-11-05T13:53:26.945Z,100386.66
2022-11-05T13:56:02.794Z,100389.50
2022-11-05T13:58:50.909Z,100387.53
2022-11-05T14:01:27.011Z,100392.41
2022-11-05T14:03:56.400Z,100395.47
2022-11-05T14:06:26.471Z,100392.50
2022-11-05T14:08:58.272Z,100389.16
2022-11-05T14:11:28.990Z,100389.75
2022-11-05T14:13:58.716Z,100391.63
2022-11-05T14:16:27.745Z,100392.53
2022-11-05T14:19:15.537Z,100393.69
2022-11-05T14:21:48.160Z,100387.66
2022-11-05T14:24:25.787Z,100391.38
2022-11-05T14:27:12.493Z,100386.78
2022-11-05T14:29:43.632Z,100394.72
2022-11-05T14:32:25.750Z,100398.16
2022-11-05T14:35:01.779Z,100401.63
2022-11-05T14:37:31.306Z,100391.16
2022-11-05T14:40:04.967Z,100393.69
2022-11-05T14:42:32.634Z,100394.56
2022-11-05T14:45:03.837Z,100399.66
2022-11-05T14:47:33.221Z,100389.53
2022-11-05T14:50:05.200Z,100393.06
2022-11-05T14:52:33.154Z,100382.84
2022-11-05T14:55:02.521Z,100396.00
2022-11-05T14:57:49.014Z,100396.09
2022-11-05T15:00:32.467Z,100404.63
2022-11-05T15:03:01.357Z,100406.06
2022-11-05T15:05:39.887Z,100409.31
2022-11-05T15:08:28.564Z,100408.72
2022-11-05T15:11:03.243Z,100409.44
2022-11-05T15:13:32.741Z,100417.09
2022-11-05T15:16:00.518Z,100412.53
2022-11-05T15:18:31.177Z,100414.63
2022-11-05T15:21:00.101Z,100403.31
2022-11-05T15:23:30.937Z,100399.09
2022-11-05T15:26:04.138Z,100397.47
2022-11-05T15:28:34.423Z,100393.94
2022-11-05T15:31:03.482Z,100395.03
2022-11-05T15:33:32.194Z,100398.72
2022-11-05T15:36:11.547Z,100408.25
2022-11-05T15:38:56.684Z,100407.06
2022-11-05T15:41:34.870Z,100406.22
2022-11-05T15:44:02.944Z,100407.94
2022-11-05T15:46:31.268Z,100412.81
2022-11-05T15:49:00.580Z,100418.03
2022-11-05T15:51:28.220Z,100419.66
2022-11-05T15:56:49.735Z,100418.09
2022-11-05T15:59:20.776Z,100417.19
2022-11-05T16:01:49.944Z,100416.59
2022-11-05T16:04:20.703Z,100420.66
2022-11-05T16:06:51.825Z,100409.97
2022-11-05T16:09:24.377Z,100404.25
2022-11-05T16:12:20.341Z,100411.16
2022-11-05T16:14:58.636Z,100397.13
2022-11-05T16:17:27.357Z,100400.13
2022-11-05T16:19:55.167Z,100400.78
2022-11-05T16:22:23.099Z,100396.78
2022-11-05T16:24:51.966Z,100405.72
2022-11-05T16:27:22.097Z,100404.59
2022-11-05T16:29:51.384Z,100405.78
2022-11-05T16:32:25.376Z,100409.22
2022-11-05T16:35:01.250Z,100405.94
2022-11-05T16:37:30.003Z,100408.53
2022-11-05T16:39:58.066Z,100412.66
2022-11-05T16:42:40.442Z,100424.22
2022-11-05T16:45:12.768Z,100417.53
2022-11-05T16:47:40.603Z,100418.84
2022-11-05T16:50:26.289Z,100419.63
2022-11-05T16:52:55.320Z,100425.97
2022-11-05T16:55:23.206Z,100428.81
2022-11-05T16:57:54.217Z,100439.22
2022-11-05T17:00:22.775Z,100435.25
2022-11-05T17:02:50.800Z,100452.78
2022-11-05T17:05:20.659Z,100460.19
2022-11-05T17:07:48.224Z,100460.88
2022-11-05T17:10:16.044Z,100463.88
2022-11-05T17:12:44.124Z,100480.78
2022-11-05T17:15:21.002Z,100475.66
2022-11-05T17:17:48.744Z,100489.13
2022-11-05T17:20:23.866Z,100494.38
2022-11-05T17:22:51.486Z,100494.97
2022-11-05T17:25:19.600Z,100494.44
2022-11-05T17:27:47.715Z,100493.84
2022-11-05T17:30:19.840Z,100490.13
2022-11-05T17:32:47.965Z,100490.81
2022-11-05T17:35:15.900Z,100483.09
2022-11-05T17:37:43.561Z,100482.44
2022-11-05T17:40:14.045Z,100483.72
2022-11-05T17:42:42.039Z,100475.72
2022-11-05T17:45:10.413Z,100479.53
2022-11-05T17:47:39.529Z,100477.50
2022-11-05T17:50:08.377Z,100475.84
2022-11-05T17:52:37.130Z,100474.16
2022-11-05T17:55:04.881Z,100477.06
2022-11-05T17:57:33.377Z,100482.88
2022-11-05T18:00:01.044Z,100478.06
2022-11-05T18:02:29.724Z,100479.41
2022-11-05T18:04:59.038Z,100477.66
2022-11-05T18:07:26.687Z,100476.69
2022-11-05T18:09:54.285Z,100479.38
2022-11-05T18:12:22.369Z,100488.56
2022-11-05T18:14:49.965Z,100501.16
2022-11-05T18:17:17.660Z,100494.38
2022-11-05T18:19:45.387Z,100498.41
2022-11-05T18:22:16.339Z,100495.31
2022-11-05T18:24:44.135Z,100501.44
2022-11-05T18:27:11.913Z,100506.41
2022-11-05T18:29:40.058Z,100515.28
2022-11-05T18:32:07.995Z,100514.25
2022-11-05T18:34:36.410Z,100509.38
2022-11-05T18:37:04.454Z,100520.84
2022-11-05T18:39:33.627Z,100516.47
2022-11-05T18:42:01.436Z,100518.72
2022-11-05T18:44:29.324Z,100516.09
2022-11-05T18:46:58.659Z,100508.94
2022-11-05T18:49:26.673Z,100512.66
2022-11-05T18:51:54.713Z,100508.94
2022-11-05T18:54:22.333Z,100511.22
2022-11-05T18:56:51.372Z,100510.03
2022-11-05T18:59:38.577Z,100506.84
2022-11-05T19:02:08.330Z,100512.50
2022-11-05T19:04:36.343Z,100507.28
2022-11-05T19:07:05.403Z,100509.78
2022-11-05T19:09:33.784Z,100515.66
2022-11-05T19:12:03.231Z,100516.50
2022-11-05T19:14:31.413Z,100508.19
2022-11-05T19:16:59.679Z,100518.44
2022-11-05T19:19:28.515Z,100516.78
2022-11-05T19:21:56.477Z,100521.47
2022-11-05T19:24:24.588Z,100528.47
2022-11-05T19:26:52.897Z,100527.81
2022-11-05T19:29:22.149Z,100522.00
2022-11-05T19:31:50.051Z,100514.69
2022-11-05T19:34:19.085Z,100519.44
2022-11-05T19:36:46.857Z,100510.63
2022-11-05T19:39:15.861Z,100503.06
2022-11-05T19:41:43.697Z,100507.69
2022-11-05T19:44:11.661Z,100508.59
2022-11-05T19:46:41.640Z,100501.63
2022-11-05T19:49:12.980Z,100510.06
2022-11-05T19:51:40.749Z,100504.94
2022-11-05T19:54:09.222Z,100507.22
2022-11-05T19:56:38.496Z,100504.03
2022-11-05T19:59:07.161Z,100504.50
2022-11-05T20:01:35.787Z,100504.94
2022-11-05T20:04:06.309Z,100506.75
2022-11-05T20:06:40.296Z,100498.59
2022-11-05T20:09:27.427Z,100494.63
2022-11-05T20:11:56.636Z,100489.69
2022-11-05T20:14:25.470Z,100495.00
2022-11-05T20:16:53.981Z,100494.22
2022-11-05T20:19:23.995Z,100493.38
2022-11-05T20:21:51.869Z,100496.66
2022-11-05T20:24:24.651Z,100497.94
2022-11-05T20:26:53.552Z,100503.84
2022-11-05T20:29:21.999Z,100497.75
2022-11-05T20:31:50.172Z,100501.50
2022-11-05T20:34:18.232Z,100500.19
2022-11-05T20:36:48.318Z,100500.78
2022-11-05T20:39:16.986Z,100500.22
2022-11-05T20:41:45.006Z,100502.94
2022-11-05T20:44:13.142Z,100509.56
2022-11-05T20:46:41.176Z,100502.47
2022-11-05T20:49:09.452Z,100509.53
2022-11-05T20:51:37.213Z,100504.34
2022-11-05T20:54:06.496Z,100504.91
2022-11-05T20:56:35.478Z,100512.09
2022-11-05T20:59:03.657Z,100511.06
2022-11-05T21:01:32.282Z,100502.88
2022-11-05T21:04:00.725Z,100509.47
2022-11-05T21:06:28.413Z,100503.63
2022-11-05T21:08:56.936Z,100506.53
2022-11-05T21:11:26.147Z,100505.91
2022-11-05T21:13:53.856Z,100510.56
2022-11-05T21:16:22.054Z,100515.59
2022-11-05T21:18:50.138Z,100508.06
2022-11-05T21:21:23.350Z,100506.16
2022-11-05T21:23:51.332Z,100509.88
2022-11-05T21:26:19.246Z,100506.44
2022-11-05T21:28:49.417Z,100499.25
2022-11-05T21:31:17.087Z,100491.78
2022-11-05T21:33:44.771Z,100494.75
2022-11-05T21:36:13.753Z,100504.16
2022-11-05T21:38:42.254Z,100492.16
2022-11-05T21:41:12.453Z,100495.50
2022-11-05T21:43:41.909Z,100498.44
2022-11-05T21:46:13.563Z,100499.00
2022-11-05T21:48:41.702Z,100492.47
2022-11-05T21:51:28.446Z,100488.94
2022-11-05T21:54:13.962Z,100495.66
2022-11-05T21:56:59.218Z,100497.34
2022-11-05T21:59:44.930Z,100507.53
2022-11-05T22:02:15.398Z,100502.16
2022-11-05T22:04:44.361Z,100498.03
2022-11-05T22:07:13.437Z,100490.88
2022-11-05T22:09:41.880Z,100499.31
2022-11-05T22:12:10.069Z,100496.22
2022-11-05T22:14:38.780Z,100498.59
2022-11-05T22:17:07.086Z,100504.78
2022-11-05T22:19:37.370Z,100496.91
2022-11-05T22:22:06.315Z,100506.63
2022-11-05T22:24:38.253Z,100511.44
2022-11-05T22:27:08.432Z,100513.66
2022-11-05T22:29:36.965Z,100518.81
2022-11-05T22:32:05.103Z,100522.41
2022-11-05T22:34:33.392Z,100520.94
2022-11-05T22:37:03.928Z,100525.88
2022-11-05T22:39:31.693Z,100520.50
2022-11-05T22:42:02.043Z,100520.88
2022-11-05T22:44:33.623Z,100520.84
2022-11-05T22:47:02.054Z,100519.34
2022-11-05T22:49:30.529Z,100512.81
2022-11-05T22:51:59.009Z,100512.28
2022-11-05T22:54:33.871Z,100506.19
2022-11-05T22:57:05.151Z,100510.16
2022-11-05T22:59:33.396Z,100509.28
2022-11-05T23:02:05.295Z,100509.53
2022-11-05T23:04:36.894Z,100512.84
2022-11-05T23:07:27.291Z,100513.16
2022-11-05T23:10:14.777Z,100513.91
2022-11-05T23:12:44.365Z,100515.63
2022-11-05T23:15:34.756Z,100510.19
2022-11-05T23:18:20.503Z,100507.47
2022-11-05T23:21:05.441Z,100501.81
2022-11-05T23:23:50.783Z,100506.16
2022-11-05T23:26:37.688Z,100506.09
2022-11-05T23:29:05.618Z,100511.47
2022-11-05T23:31:52.219Z,100507.25
2022-11-05T23:34:19.986Z,100506.69
2022-11-05T23:37:05.493Z,100498.69
2022-11-05T23:39:35.779Z,100503.44
2022-11-05T23:42:26.630Z,100494.28
2022-11-05T23:45:14.627Z,100489.97
2022-11-05T23:48:00.233Z,100491.25
2022-11-05T23:50:28.461Z,100487.38
2022-11-05T23:52:56.322Z,100483.31
2022-11-05T23:55:24.678Z,100486.09
2022-11-05T23:57:53.907Z,100484.41
